»·PEaware :: XOJ539 KLNK-KHOU

XOJ539 :: KLNK-KHOU

FLIGHT INFORMATION

Flight Status: Arrived
Operator:
XOJET
More flights by this operator :: More flights under this callsign
Pilot: Charles S. (11412)
Aircraft: BOMBARDIER BD-100 CHALLENGER 300
(CL30)
More flights by this aircraft type
Origin: KLNK Lincoln Mun
United States
Destination: KHOU Hobby
United States
More flights between these airports :: More routes between these airports
Route: +CVE ELLVR NNEAL KIDDZ3
File this flight plan on PilotEdge
Remarks:
Altitude:
(Current/Filed)
41,000ft
Speed:
(Current/Filed)
115kts
Departed: 26-Aug-18 11:26 AM
Arrived: 26-Aug-18 01:16 PM
Distance/Time
Traveled:
676nm/1:50
Distance/Time
To Go:
Arrived

Flight Plot

Page will automatically refresh every two minutes.

Flight plan parsing failed; only flown route is shown


Map Options




Map Legend


Flown Route
Filed Route
Departure Airport
Arrival Airport
Navaid (VOR, NDB)
Fix

Horizontal Profiles

Position Reports

Time Latitude Longitude Heading Altitude Ground
Speed
26-Aug-18 11:21 40.851631 -96.747879 357 1226ft 0kts
26-Aug-18 11:22 40.852184 -96.748369 270 1226ft 6kts
26-Aug-18 11:23 40.852174 -96.749065 266 1226ft 0kts
26-Aug-18 11:24 40.852782 -96.749557 2 1226ft 6kts
26-Aug-18 11:25 40.857954 -96.749505 358 1226ft 13kts
26-Aug-18 11:26 40.860709 -96.750751 178 1226ft 6kts
26-Aug-18 11:27 40.837281 -96.754696 182 3585ft 126kts
26-Aug-18 11:28 40.791262 -96.757689 184 7114ft 234kts
26-Aug-18 11:29 40.720084 -96.760792 184 10036ft 343kts
26-Aug-18 11:30 40.628767 -96.763311 185 13248ft 337kts
26-Aug-18 11:31 40.533321 -96.765502 185 16463ft 355kts
26-Aug-18 11:32 40.438476 -96.767489 185 19494ft 374kts
26-Aug-18 11:33 40.331586 -96.769634 185 22727ft 393kts
26-Aug-18 11:34 40.222241 -96.771786 185 25904ft 400kts
26-Aug-18 11:35 40.111991 -96.773950 185 29082ft 396kts
26-Aug-18 11:36 40.003601 -96.776073 185 32253ft 385kts
26-Aug-18 11:37 39.900200 -96.778090 186 35358ft 367kts
26-Aug-18 11:38 39.803774 -96.779965 186 38377ft 339kts
26-Aug-18 11:39 39.715614 -96.781681 187 41017ft 310kts
26-Aug-18 11:40 39.622814 -96.783641 186 41002ft 362kts
26-Aug-18 11:41 39.515542 -96.785753 185 40976ft 410kts
26-Aug-18 11:42 39.395660 -96.788066 185 40985ft 451kts
26-Aug-18 11:43 39.270024 -96.790449 185 40980ft 454kts
26-Aug-18 11:44 39.145246 -96.792846 185 40982ft 452kts
26-Aug-18 11:45 39.019663 -96.795265 185 40980ft 453kts
26-Aug-18 11:46 38.895228 -96.797712 184 40981ft 458kts
26-Aug-18 11:47 38.767775 -96.800107 184 40984ft 458kts
26-Aug-18 11:48 38.640674 -96.802541 184 40983ft 458kts
26-Aug-18 11:49 38.514222 -96.804932 184 40990ft 458kts
26-Aug-18 11:50 38.387224 -96.807340 184 41032ft 458kts
26-Aug-18 11:51 38.260180 -96.809732 184 41033ft 458kts
26-Aug-18 11:52 38.133442 -96.812113 184 41033ft 458kts
26-Aug-18 11:53 38.007106 -96.814478 184 41033ft 458kts
26-Aug-18 11:54 37.880646 -96.816824 184 41037ft 458kts
26-Aug-18 11:55 37.757201 -96.819128 184 41038ft 458kts
26-Aug-18 11:56 37.632431 -96.821439 184 41037ft 458kts
26-Aug-18 11:57 37.505626 -96.823780 184 41041ft 458kts
26-Aug-18 11:58 37.378807 -96.826113 184 41048ft 458kts
26-Aug-18 11:59 37.252538 -96.828426 184 41055ft 458kts
26-Aug-18 12:00 37.125425 -96.830749 184 41054ft 458kts
26-Aug-18 12:01 36.998183 -96.833133 182 41055ft 463kts
26-Aug-18 12:02 36.869868 -96.835420 182 41042ft 466kts
26-Aug-18 12:03 36.741140 -96.837727 182 41037ft 465kts
26-Aug-18 12:04 36.612204 -96.840047 182 41037ft 465kts
26-Aug-18 12:05 36.483024 -96.842367 182 41036ft 465kts
26-Aug-18 12:06 36.354747 -96.844664 182 41046ft 465kts
26-Aug-18 12:07 36.225773 -96.846966 182 41050ft 465kts
26-Aug-18 12:08 36.097674 -96.849242 182 41049ft 465kts
26-Aug-18 12:09 35.968396 -96.851533 182 41046ft 465kts
26-Aug-18 12:10 35.839850 -96.853807 182 41055ft 465kts
26-Aug-18 12:11 35.711266 -96.856073 182 41062ft 465kts
26-Aug-18 12:12 35.582833 -96.858331 182 41067ft 465kts
26-Aug-18 12:13 35.453957 -96.860584 182 41072ft 465kts
26-Aug-18 12:14 35.325028 -96.862843 182 41113ft 467kts
26-Aug-18 12:15 35.217903 -96.864698 182 41076ft 465kts
26-Aug-18 12:16 35.067552 -96.867303 182 41081ft 465kts
26-Aug-18 12:17 34.959884 -96.869160 182 41090ft 467kts
26-Aug-18 12:18 34.808972 -96.871765 182 41095ft 470kts
26-Aug-18 12:19 34.701080 -96.873620 182 41083ft 469kts
26-Aug-18 12:20 34.549857 -96.876208 182 41083ft 469kts
26-Aug-18 12:21 34.441192 -96.878062 182 41077ft 469kts
26-Aug-18 12:22 34.312949 -96.880244 182 41073ft 469kts
26-Aug-18 12:23 34.173758 -96.882606 182 41066ft 469kts
26-Aug-18 12:24 34.067648 -96.884401 182 41044ft 470kts
26-Aug-18 12:25 33.937868 -96.886588 182 41082ft 469kts
26-Aug-18 12:26 33.811225 -96.888721 182 41091ft 470kts
26-Aug-18 12:27 33.681352 -96.890898 182 41091ft 469kts
26-Aug-18 12:28 33.551322 -96.893054 182 41091ft 469kts
26-Aug-18 12:29 33.421247 -96.895209 182 41091ft 469kts
26-Aug-18 12:30 33.290997 -96.897371 182 41086ft 469kts
26-Aug-18 12:31 33.161291 -96.899520 182 41089ft 469kts
26-Aug-18 12:32 33.030449 -96.901769 180 41089ft 480kts
26-Aug-18 12:33 32.899339 -96.903879 179 41074ft 471kts
26-Aug-18 12:34 32.769722 -96.897142 176 41071ft 472kts
26-Aug-18 12:35 32.639359 -96.889793 176 41070ft 472kts
26-Aug-18 12:36 32.509982 -96.882511 176 41069ft 472kts
26-Aug-18 12:37 32.379610 -96.875190 176 41068ft 472kts
26-Aug-18 12:38 32.248494 -96.867848 176 41068ft 472kts
26-Aug-18 12:39 32.117820 -96.860555 176 41068ft 472kts
26-Aug-18 12:40 31.987207 -96.853281 176 41069ft 472kts
26-Aug-18 12:41 31.857126 -96.846064 176 40608ft 475kts
26-Aug-18 12:42 31.727157 -96.838587 173 38674ft 455kts
26-Aug-18 12:43 31.609516 -96.806562 164 36729ft 423kts
26-Aug-18 12:44 31.496171 -96.771960 164 34884ft 425kts
26-Aug-18 12:45 31.382466 -96.736946 164 33024ft 430kts
26-Aug-18 12:46 31.267458 -96.701530 164 31133ft 434kts
26-Aug-18 12:47 31.152408 -96.659695 158 29210ft 436kts
26-Aug-18 12:48 31.038379 -96.610051 158 27278ft 439kts
26-Aug-18 12:49 30.926841 -96.561254 157 25373ft 425kts
26-Aug-18 12:50 30.821464 -96.515192 157 23570ft 403kts
26-Aug-18 12:51 30.721184 -96.471442 157 21877ft 381kts
26-Aug-18 12:52 30.623896 -96.429003 157 20234ft 372kts
26-Aug-18 12:53 30.532174 -96.380693 153 18626ft 362kts
26-Aug-18 12:54 30.442935 -96.331958 154 17068ft 353kts
26-Aug-18 12:55 30.355169 -96.285241 154 15530ft 345kts
26-Aug-18 12:56 30.269728 -96.240137 154 14035ft 338kts
26-Aug-18 12:57 30.186463 -96.196023 154 12573ft 318kts
26-Aug-18 12:58 30.107068 -96.153628 154 12110ft 316kts
26-Aug-18 12:59 30.028095 -96.110045 153 12048ft 316kts
26-Aug-18 13:00 29.949630 -96.065148 153 11967ft 316kts
26-Aug-18 13:01 29.871951 -96.020723 153 11896ft 315kts
26-Aug-18 13:02 29.798388 -95.975946 150 11256ft 294kts
26-Aug-18 13:03 29.736410 -95.935242 150 10183ft 272kts
26-Aug-18 13:04 29.671662 -95.892799 141 9826ft 273kts
26-Aug-18 13:05 29.653187 -95.811093 98 8751ft 277kts
26-Aug-18 13:06 29.647409 -95.740129 96 7808ft 253kts
26-Aug-18 13:07 29.643367 -95.677010 96 6994ft 230kts
26-Aug-18 13:08 29.644435 -95.604629 55 6052ft 237kts
26-Aug-18 13:09 29.693272 -95.555104 35 5459ft 233kts
26-Aug-18 13:10 29.744537 -95.515939 34 4119ft 209kts
26-Aug-18 13:11 29.790536 -95.479431 62 2695ft 193kts
26-Aug-18 13:12 29.770039 -95.431921 131 2080ft 182kts
26-Aug-18 13:13 29.739087 -95.391387 134 2096ft 163kts
26-Aug-18 13:14 29.709121 -95.354767 134 1737ft 149kts
26-Aug-18 13:15 29.684408 -95.325355 135 1063ft 124kts
26-Aug-18 13:16 29.660707 -95.297164 135 415ft 124kts
26-Aug-18 13:17 29.641477 -95.274290 134 50ft 23kts
26-Aug-18 13:18 29.639053 -95.273262 313 50ft 22kts
26-Aug-18 13:19 29.640985 -95.277087 312 50ft 23kts
26-Aug-18 13:20 29.643703 -95.283068 316 50ft 22kts
26-Aug-18 13:21 29.643859 -95.285624 283 50ft 11kts

Navigation Log

Ident Type
Flight plan parsing failed, navigation log unavailable